Time;durP1;ratioP1;P1;durP2;ratioP2;P2;SDS_P1;SDS_P2;PMS_P1;PMS_P2;Temp;Humidity;BMP_temperature;BMP_pressure;BME280_temperature;BME280_humidity;BME280_pressure;Samples;Min_cycle;Max_cycle;Signal;HPM_P1;HPM_P2
2022/01/06 00:01:47;;;;;;;136.18;64.35;;;;;;;6.61;62.11;94130.75;4945297;29;20499;-80
2022/01/06 00:04:16;;;;;;;135.10;63.65;;;;;;;6.63;62.80;94133.91;4926509;29;20101;-81
2022/01/06 00:06:42;;;;;;;158.02;80.10;;;;;;;6.58;62.25;94138.97;4912633;29;20080;-81
2022/01/06 00:09:09;;;;;;;132.05;66.80;;;;;;;6.60;62.47;94140.31;4926974;29;20081;-81
2022/01/06 00:11:35;;;;;;;236.52;108.82;;;;;;;6.51;62.11;94136.50;4928114;29;20036;-80
2022/01/06 00:16:35;;;;;;;157.45;75.95;;;;;;;6.50;61.87;94140.06;4913147;29;20051;-81
2022/01/06 00:24:17;;;;;;;74.72;34.13;;;;;;;6.41;62.89;94140.63;4920541;29;20054;-81
2022/01/06 00:26:42;;;;;;;77.63;37.47;;;;;;;6.44;62.68;94140.16;4914925;29;20034;-81
2022/01/06 00:29:08;;;;;;;56.95;27.48;;;;;;;6.49;62.50;94138.47;4914501;29;20091;-81
2022/01/06 00:31:35;;;;;;;144.73;69.68;;;;;;;6.41;61.94;94125.91;4931460;29;20500;-81
2022/01/06 00:34:01;;;;;;;171.85;80.57;;;;;;;6.45;61.62;94137.34;4916135;29;20035;-80
2022/01/06 00:36:26;;;;;;;96.70;44.58;;;;;;;6.41;62.44;94133.66;4914140;29;20479;-81
2022/01/06 00:38:52;;;;;;;82.47;37.63;;;;;;;6.35;62.66;94144.88;4931106;29;20062;-80
2022/01/06 00:41:18;;;;;;;47.60;25.40;;;;;;;6.40;62.45;94145.00;4931173;29;20511;-81
2022/01/06 00:43:43;;;;;;;77.90;38.17;;;;;;;6.46;61.91;94148.47;4915028;29;20534;-80
2022/01/06 00:46:09;;;;;;;164.45;72.93;;;;;;;6.35;61.63;94157.78;4898398;29;20126;-81
2022/01/06 00:48:34;;;;;;;158.48;74.28;;;;;;;6.29;61.68;94156.06;4930796;29;20059;-80
2022/01/06 00:50:59;;;;;;;157.27;73.93;;;;;;;6.21;62.17;94171.91;4930583;29;20043;-81
2022/01/06 00:53:25;;;;;;;136.25;59.80;;;;;;;6.18;62.79;94151.66;4915089;29;20027;-80
2022/01/06 00:55:50;;;;;;;71.30;31.75;;;;;;;6.22;63.38;94152.81;4914772;29;20090;-81
2022/01/06 00:58:18;;;;;;;88.57;43.25;;;;;;;6.31;63.28;94156.63;4947751;29;20042;-80
2022/01/06 01:00:43;;;;;;;92.80;44.55;;;;;;;6.27;63.51;94163.25;4915151;29;20415;-81
2022/01/06 01:03:11;;;;;;;104.72;52.65;;;;;;;6.25;62.35;94171.22;4915933;29;20475;-79
2022/01/06 01:05:38;;;;;;;99.60;51.53;;;;;;;6.17;62.42;94170.75;4938483;29;20036;-79
2022/01/06 01:08:04;;;;;;;65.43;36.78;;;;;;;6.13;64.16;94167.03;4933951;29;20035;-79
2022/01/06 01:10:29;;;;;;;75.85;35.28;;;;;;;6.10;64.86;94168.25;4956808;29;20049;-82
2022/01/06 01:12:55;;;;;;;68.55;33.17;;;;;;;6.12;66.41;94168.81;4917961;29;20043;-82
2022/01/06 01:15:21;;;;;;;83.55;43.90;;;;;;;6.09;63.67;94174.44;4914866;29;20036;-82
2022/01/06 01:17:50;;;;;;;92.63;44.28;;;;;;;5.98;63.99;94168.22;4929987;29;20035;-81
2022/01/06 01:20:17;;;;;;;85.55;42.50;;;;;;;5.99;63.28;94169.78;4914477;29;20107;-80
2022/01/06 01:22:42;;;;;;;86.15;39.85;;;;;;;6.05;64.10;94168.13;4929580;29;20047;-81
2022/01/06 01:25:11;;;;;;;82.40;39.85;;;;;;;5.98;63.80;94168.22;4914275;29;20028;-81
2022/01/06 01:27:44;;;;;;;83.43;41.08;;;;;;;5.97;63.54;94161.47;4913829;29;20044;-81
2022/01/06 01:30:13;;;;;;;78.72;40.75;;;;;;;5.88;64.90;94167.16;4952680;29;20035;-80
2022/01/06 01:32:40;;;;;;;73.00;40.38;;;;;;;5.91;64.43;94167.53;4945255;29;20051;-81
2022/01/06 01:35:08;;;;;;;96.75;44.10;;;;;;;5.91;64.69;94164.94;4913270;29;20059;-81
2022/01/06 01:37:33;;;;;;;96.82;48.58;;;;;;;5.79;62.87;94164.06;4913848;29;20050;-81
2022/01/06 01:39:59;;;;;;;96.63;46.38;;;;;;;5.81;63.36;94151.72;4912981;29;20039;-81
2022/01/06 01:42:25;;;;;;;86.63;43.15;;;;;;;5.78;64.11;94152.16;4914180;29;20032;-81
2022/01/06 01:44:51;;;;;;;132.35;61.10;;;;;;;5.68;63.03;94157.06;4930620;29;20035;-80
2022/01/06 01:47:26;;;;;;;123.80;57.17;;;;;;;5.68;63.25;94154.47;4913773;29;20071;-80
2022/01/06 01:49:56;;;;;;;102.95;51.33;;;;;;;5.70;64.32;94155.06;4929877;29;20063;-81
2022/01/06 01:52:22;;;;;;;103.65;51.83;;;;;;;5.68;64.19;94149.31;4900363;29;20040;-80
2022/01/06 01:54:47;;;;;;;106.50;52.17;;;;;;;5.64;63.53;94148.97;4948428;29;20083;-79
2022/01/06 01:57:13;;;;;;;92.97;49.55;;;;;;;5.63;63.68;94144.03;4930363;29;20070;-79
2022/01/06 01:59:38;;;;;;;100.25;52.22;;;;;;;5.55;64.31;94139.19;4929819;29;20051;-80
2022/01/06 02:02:04;;;;;;;90.20;46.22;;;;;;;5.43;63.43;94129.59;4946834;29;20039;-80
2022/01/06 02:04:29;;;;;;;71.60;39.88;;;;;;;5.41;63.95;94139.34;4944978;29;20031;-80
2022/01/06 02:06:56;;;;;;;92.53;45.42;;;;;;;5.43;64.05;94150.22;4936917;29;20028;-80
2022/01/06 02:09:21;;;;;;;93.18;47.25;;;;;;;5.39;63.80;94148.28;4912791;29;20047;-79
2022/01/06 02:11:47;;;;;;;86.75;44.05;;;;;;;5.35;65.48;94160.81;4897506;29;20035;-80
2022/01/06 02:14:12;;;;;;;99.28;48.92;;;;;;;5.34;64.20;94156.66;4945984;29;20104;-80
2022/01/06 02:16:38;;;;;;;95.13;47.78;;;;;;;5.35;65.41;94147.91;4898861;29;20035;-80
2022/01/06 02:19:05;;;;;;;103.85;51.80;;;;;;;5.29;64.81;94153.16;4929012;29;20534;-80
2022/01/06 02:21:31;;;;;;;105.40;52.55;;;;;;;5.27;64.23;94148.22;4898626;29;20035;-80
2022/01/06 02:23:56;;;;;;;112.15;54.80;;;;;;;5.19;65.32;94148.47;4929186;29;20157;-80
2022/01/06 02:26:24;;;;;;;117.90;56.28;;;;;;;5.21;66.32;94161.97;4945992;29;20040;-79
2022/01/06 02:28:52;;;;;;;110.95;52.95;;;;;;;5.13;64.81;94165.59;4943803;29;20043;-80
2022/01/06 02:31:37;;;;;;;105.03;50.53;;;;;;;5.18;65.14;94162.38;4897199;29;20122;-80
2022/01/06 02:34:02;;;;;;;104.38;53.53;;;;;;;5.13;65.42;94173.31;4924995;29;20040;-80
2022/01/06 02:36:28;;;;;;;108.40;54.33;;;;;;;5.20;64.73;94180.97;4909468;29;20051;-80
2022/01/06 02:38:53;;;;;;;106.18;51.55;;;;;;;5.16;65.34;94179.06;4892609;29;20179;-80
2022/01/06 02:41:19;;;;;;;116.85;55.67;;;;;;;5.13;65.37;94180.28;4909086;29;20413;-80
2022/01/06 02:43:44;;;;;;;109.18;51.38;;;;;;;5.15;64.86;94178.25;4893381;29;20397;-80
2022/01/06 02:46:10;;;;;;;111.90;54.33;;;;;;;5.19;65.54;94183.78;4893042;29;20095;-79
2022/01/06 02:48:35;;;;;;;120.97;57.60;;;;;;;5.20;65.99;94169.88;4924888;29;20412;-80
2022/01/06 02:51:01;;;;;;;139.38;62.50;;;;;;;5.07;64.79;94168.25;4906347;29;20044;-80
2022/01/06 02:53:26;;;;;;;128.85;61.72;;;;;;;5.05;64.67;94170.25;4893588;29;20243;-79
2022/01/06 02:55:53;;;;;;;125.57;64.93;;;;;;;5.04;64.36;94168.66;4923234;29;20050;-79
2022/01/06 02:58:22;;;;;;;110.50;58.10;;;;;;;5.02;65.09;94168.09;4894165;29;20052;-80
2022/01/06 03:00:47;;;;;;;120.80;55.63;;;;;;;4.99;65.89;94160.78;4894307;29;20107;-80
2022/01/06 03:03:13;;;;;;;112.03;56.28;;;;;;;5.02;66.02;94152.63;4891619;29;20032;-80
2022/01/06 03:05:39;;;;;;;97.90;45.40;;;;;;;5.01;67.04;94164.72;4909473;29;20044;-80
2022/01/06 03:08:05;;;;;;;111.47;54.17;;;;;;;5.07;65.92;94168.25;4913079;29;20032;-80
2022/01/06 03:10:35;;;;;;;112.60;54.63;;;;;;;5.09;66.05;94167.03;4945223;29;20036;-79
2022/01/06 03:13:01;;;;;;;110.28;53.70;;;;;;;5.12;65.58;94163.22;4913055;29;20027;-79
2022/01/06 03:15:26;;;;;;;101.00;52.47;;;;;;;5.10;65.57;94162.66;4928039;29;20033;-80
2022/01/06 03:17:55;;;;;;;104.78;51.90;;;;;;;5.08;64.94;94162.09;4910789;29;20047;-79
2022/01/06 03:20:23;;;;;;;112.88;57.40;;;;;;;5.04;66.15;94171.22;4897115;29;20146;-80
2022/01/06 03:22:49;;;;;;;130.18;67.85;;;;;;;5.02;66.14;94188.69;4929125;29;20555;-81
2022/01/06 03:25:15;;;;;;;134.15;63.88;;;;;;;5.05;65.57;94183.13;4928593;29;20050;-82
2022/01/06 03:27:50;;;;;;;113.93;55.78;;;;;;;5.04;66.28;94179.78;4930829;29;20039;-82
2022/01/06 03:30:17;;;;;;;108.95;52.53;;;;;;;5.07;66.84;94165.69;4947736;29;20027;-80
2022/01/06 03:32:42;;;;;;;120.80;63.65;;;;;;;5.14;66.09;94166.38;4934506;29;20055;-81
2022/01/06 03:35:09;;;;;;;112.00;56.33;;;;;;;5.11;66.62;94170.19;4934261;29;20526;-80
2022/01/06 03:37:34;;;;;;;126.78;61.95;;;;;;;5.14;66.19;94161.22;4922750;29;20039;-80
2022/01/06 03:40:04;;;;;;;132.77;63.53;;;;;;;5.15;65.22;94162.81;4906922;29;20106;-80
2022/01/06 03:42:31;;;;;;;117.05;61.22;;;;;;;5.16;64.97;94159.22;4951927;29;20609;-79
2022/01/06 03:44:56;;;;;;;110.13;54.72;;;;;;;5.10;66.31;94170.41;4932331;29;20059;-79
2022/01/06 03:47:24;;;;;;;111.70;57.95;;;;;;;5.16;65.10;94168.75;4936251;29;20036;-80
2022/01/06 03:49:50;;;;;;;91.90;50.85;;;;;;;5.15;65.34;94172.31;4953462;29;20054;-79
2022/01/06 03:52:15;;;;;;;108.25;55.95;;;;;;;5.14;65.27;94176.69;4937367;29;20044;-79
2022/01/06 03:54:43;;;;;;;127.80;63.72;;;;;;;5.04;64.55;94178.97;4955078;29;20044;-79
2022/01/06 03:57:08;;;;;;;116.90;57.53;;;;;;;5.05;64.99;94185.72;4919467;29;20043;-80
2022/01/06 03:59:35;;;;;;;100.15;51.22;;;;;;;5.09;64.72;94185.06;4934474;29;20038;-79
2022/01/06 04:02:01;;;;;;;107.50;58.08;;;;;;;5.01;64.50;94181.97;4918230;29;20080;-79
2022/01/06 04:04:27;;;;;;;111.13;59.80;;;;;;;4.93;65.96;94187.41;4936611;29;20628;-79
2022/01/06 04:06:52;;;;;;;82.50;43.28;;;;;;;4.98;65.77;94195.28;4946728;29;20102;-81
2022/01/06 04:09:18;;;;;;;114.97;62.00;;;;;;;4.95;64.48;94198.28;4913312;29;20097;-80
2022/01/06 04:11:46;;;;;;;142.23;74.70;;;;;;;4.93;64.68;94185.63;4927905;29;20095;-81
2022/01/06 04:14:11;;;;;;;103.82;58.33;;;;;;;4.88;65.91;94188.06;4945873;29;20061;-82
2022/01/06 04:16:39;;;;;;;119.15;58.53;;;;;;;4.95;65.50;94182.81;4910876;29;20051;-81
2022/01/06 04:19:05;;;;;;;118.20;64.72;;;;;;;4.96;65.62;94186.97;4942170;29;20046;-81
2022/01/06 04:21:30;;;;;;;102.47;56.70;;;;;;;4.99;65.31;94183.97;4913403;29;20032;-82
2022/01/06 04:23:56;;;;;;;102.30;54.38;;;;;;;5.00;66.18;94195.84;4928308;29;20039;-81
2022/01/06 04:26:24;;;;;;;113.38;60.30;;;;;;;5.00;64.92;94198.44;4945107;29;20027;-81
2022/01/06 04:28:50;;;;;;;155.18;83.60;;;;;;;5.00;65.11;94211.31;4927656;29;20062;-81
2022/01/06 04:31:15;;;;;;;162.70;92.68;;;;;;;4.93;64.05;94210.59;4940288;29;20416;-80
2022/01/06 04:33:41;;;;;;;190.02;102.07;;;;;;;4.88;64.73;94213.81;4945179;29;20050;-80
2022/01/06 04:36:06;;;;;;;199.73;103.07;;;;;;;4.85;64.98;94223.72;4927778;29;20031;-80
2022/01/06 04:38:33;;;;;;;198.18;107.65;;;;;;;4.90;64.82;94226.47;4926611;29;20118;-80
2022/01/06 04:40:58;;;;;;;182.07;99.50;;;;;;;4.93;65.20;94219.09;4926424;29;20117;-80
2022/01/06 04:43:24;;;;;;;180.27;100.30;;;;;;;4.90;65.24;94218.75;4926826;29;20036;-80
2022/01/06 04:45:49;;;;;;;152.50;79.70;;;;;;;4.81;67.33;94233.66;4892360;29;20473;-81
2022/01/06 04:48:15;;;;;;;133.75;70.88;;;;;;;4.85;66.39;94234.03;4944227;29;20054;-81
2022/01/06 04:50:40;;;;;;;91.80;52.35;;;;;;;4.86;66.13;94226.09;4926646;29;20086;-80
2022/01/06 04:53:06;;;;;;;192.38;105.20;;;;;;;4.85;65.38;94234.03;4910483;29;20081;-79
2022/01/06 04:55:31;;;;;;;157.68;84.38;;;;;;;4.87;65.51;94224.28;4910079;29;20036;-81
2022/01/06 04:57:57;;;;;;;212.35;112.97;;;;;;;4.82;65.66;94227.50;4911573;29;20039;-79
2022/01/06 05:00:22;;;;;;;190.15;95.32;;;;;;;4.88;66.32;94220.72;4929530;29;20050;-79
2022/01/06 05:02:48;;;;;;;201.18;108.13;;;;;;;4.90;65.18;94223.91;4949466;28;20028;-80
2022/01/06 05:05:13;;;;;;;197.80;108.47;;;;;;;4.80;65.95;94221.78;4918734;29;20111;-79
2022/01/06 05:07:42;;;;;;;125.40;65.85;;;;;;;4.81;65.73;94231.88;4914924;29;20032;-81
2022/01/06 05:10:08;;;;;;;169.38;86.10;;;;;;;4.88;65.25;94223.28;4929844;29;20039;-82
2022/01/06 05:12:33;;;;;;;159.85;81.13;;;;;;;4.81;65.39;94224.16;4913900;29;20040;-82
2022/01/06 05:14:59;;;;;;;140.43;79.38;;;;;;;4.78;65.59;94224.56;4946533;29;20035;-81
2022/01/06 05:17:25;;;;;;;138.32;71.20;;;;;;;4.78;64.66;94214.28;4913754;29;20043;-81
2022/01/06 05:19:50;;;;;;;178.98;95.78;;;;;;;4.74;64.21;94227.78;4937616;29;20043;-81
2022/01/06 05:22:16;;;;;;;165.85;89.78;;;;;;;4.64;66.11;94217.94;4897738;29;20033;-81
2022/01/06 05:24:41;;;;;;;147.13;78.68;;;;;;;4.70;67.29;94237.69;4913112;29;20040;-81
2022/01/06 05:27:10;;;;;;;241.18;132.57;;;;;;;4.77;65.57;94223.00;4913467;29;20032;-81
2022/01/06 05:29:38;;;;;;;254.63;136.93;;;;;;;4.74;66.12;94228.56;4912819;29;20039;-81
2022/01/06 05:32:09;;;;;;;203.38;114.55;;;;;;;4.76;66.87;94225.78;4927065;29;20056;-81
2022/01/06 05:34:35;;;;;;;143.45;76.47;;;;;;;4.78;67.34;94228.94;4943877;29;20058;-80
2022/01/06 05:37:00;;;;;;;242.10;133.02;;;;;;;4.82;66.50;94228.31;4946274;29;20415;-81
2022/01/06 05:39:26;;;;;;;165.52;92.90;;;;;;;4.78;66.43;94229.72;4931787;29;20039;-82
2022/01/06 05:41:53;;;;;;;121.88;65.35;;;;;;;4.83;66.71;94232.44;4900566;29;20057;-85
2022/01/06 05:44:20;;;;;;;220.88;116.88;;;;;;;4.85;66.08;94234.81;4945794;29;20420;-79
2022/01/06 05:46:47;;;;;;;257.85;141.55;;;;;;;4.80;66.40;94232.88;4929532;29;20042;-79
2022/01/06 05:49:14;;;;;;;97.25;48.83;;;;;;;4.83;67.09;94227.31;4896619;29;20271;-79
2022/01/06 05:51:39;;;;;;;125.93;67.78;;;;;;;4.93;67.04;94236.34;4943562;29;20101;-78
2022/01/06 05:54:05;;;;;;;184.05;103.72;;;;;;;4.87;66.03;94234.59;4928243;29;20035;-78
2022/01/06 05:56:31;;;;;;;192.48;102.53;;;;;;;4.92;66.02;94240.72;4928010;29;20754;-79
2022/01/06 05:59:06;;;;;;;267.90;149.60;;;;;;;4.97;64.92;94237.50;4914486;29;20468;-79
2022/01/06 06:01:31;;;;;;;346.27;214.27;;;;;;;4.96;65.09;94235.94;4921906;29;20036;-79
2022/01/06 06:03:58;;;;;;;102.75;56.13;;;;;;;4.98;66.77;94229.56;4896278;29;20050;-81
2022/01/06 06:06:23;;;;;;;227.20;126.75;;;;;;;5.02;65.76;94235.88;4913645;29;20039;-77
2022/01/06 06:08:49;;;;;;;217.57;123.55;;;;;;;5.11;65.62;94236.41;4951084;29;20034;-81
2022/01/06 06:11:14;;;;;;;307.02;193.13;;;;;;;5.08;65.51;94229.88;4916739;29;20393;-80
2022/01/06 06:13:39;;;;;;;333.65;191.30;;;;;;;5.15;64.88;94244.50;4916845;29;20039;-80
2022/01/06 06:16:05;;;;;;;298.23;171.85;;;;;;;5.09;64.51;94243.56;4947654;29;20046;-81
2022/01/06 06:18:31;;;;;;;179.55;95.88;;;;;;;5.18;67.52;94250.00;4933344;29;20464;-80
2022/01/06 06:20:56;;;;;;;235.68;126.22;;;;;;;5.25;65.73;94248.16;4932851;29;20039;-81
2022/01/06 06:23:21;;;;;;;217.23;117.75;;;;;;;5.33;65.49;94247.09;4915145;29;20040;-80
2022/01/06 06:25:47;;;;;;;255.30;137.68;;;;;;;5.27;65.31;94248.75;4947569;29;20028;-80
2022/01/06 06:28:12;;;;;;;233.15;130.27;;;;;;;5.34;65.25;94254.63;4899277;29;20099;-81
2022/01/06 06:30:38;;;;;;;216.05;117.20;;;;;;;5.37;66.07;94251.63;4917943;29;20044;-81
2022/01/06 06:33:04;;;;;;;231.65;128.75;;;;;;;5.38;65.17;94250.63;4903115;29;20039;-81
2022/01/06 06:35:30;;;;;;;225.30;115.70;;;;;;;5.50;65.60;94258.44;4915159;29;20452;-79
2022/01/06 06:37:56;;;;;;;281.60;144.52;;;;;;;5.62;64.58;94253.34;4917916;29;20035;-79
2022/01/06 06:40:23;;;;;;;263.52;125.97;;;;;;;5.62;65.17;94248.19;4916155;29;20039;-79
2022/01/06 06:42:52;;;;;;;249.55;123.15;;;;;;;5.68;65.04;94255.06;4931800;29;20040;-81
2022/01/06 06:45:19;;;;;;;225.07;110.20;;;;;;;5.72;63.87;94257.03;4900196;29;20119;-79
2022/01/06 06:47:44;;;;;;;197.48;97.72;;;;;;;5.67;64.25;94245.75;4933597;29;20063;-80
2022/01/06 06:50:12;;;;;;;154.07;81.97;;;;;;;5.64;65.02;94259.09;4948637;29;20044;-79
2022/01/06 06:52:38;;;;;;;161.10;84.00;;;;;;;5.73;65.03;94262.97;4918534;29;20032;-81
2022/01/06 06:55:04;;;;;;;141.23;71.97;;;;;;;5.70;64.08;94263.41;4948143;29;20040;-79
2022/01/06 06:57:34;;;;;;;97.40;57.50;;;;;;;5.71;64.24;94255.44;4898054;29;20492;-79
2022/01/06 07:00:03;;;;;;;126.18;69.88;;;;;;;5.80;63.63;94250.78;4931535;29;20570;-79
2022/01/06 07:02:29;;;;;;;158.18;86.28;;;;;;;5.86;63.69;94257.66;4948499;29;20055;-79
2022/01/06 07:04:59;;;;;;;136.20;78.47;;;;;;;5.97;63.06;94248.44;4931125;29;20035;-79
2022/01/06 07:07:25;;;;;;;131.77;73.53;;;;;;;6.06;63.21;94272.16;4933242;29;20051;-79
2022/01/06 07:09:51;;;;;;;181.65;103.95;;;;;;;6.11;63.05;94285.19;4932929;29;20419;-80
2022/01/06 07:12:16;;;;;;;182.88;100.22;;;;;;;6.29;62.71;94278.22;4914946;29;20027;-80
2022/01/06 07:14:42;;;;;;;188.02;104.40;;;;;;;6.46;62.52;94278.41;4915259;29;20047;-79
2022/01/06 07:17:07;;;;;;;183.10;101.97;;;;;;;6.67;62.36;94284.06;4948410;29;20042;-79
2022/01/06 07:19:36;;;;;;;175.63;92.90;;;;;;;6.91;62.75;94286.50;4900947;29;20035;-79
2022/01/06 07:22:05;;;;;;;138.23;77.47;;;;;;;7.16;60.92;94281.16;4927987;29;20090;-80
2022/01/06 07:24:34;;;;;;;187.50;96.70;;;;;;;7.46;60.55;94281.06;4900007;29;20040;-81
2022/01/06 07:27:00;;;;;;;168.93;94.97;;;;;;;7.69;60.78;94271.72;4899500;29;20086;-80
2022/01/06 07:29:27;;;;;;;115.10;61.90;;;;;;;7.91;60.14;94269.31;4930291;29;20042;-79
2022/01/06 07:31:53;;;;;;;99.93;55.42;;;;;;;8.22;59.50;94275.91;4947348;29;20024;-79
2022/01/06 07:34:18;;;;;;;82.05;43.88;;;;;;;8.49;58.68;94276.97;4951915;29;20046;-79
2022/01/06 07:36:44;;;;;;;79.30;42.58;;;;;;;8.66;58.14;94292.56;4933287;29;20079;-80
2022/01/06 07:39:09;;;;;;;70.05;36.67;;;;;;;8.68;57.28;94290.53;4952530;29;20084;-80
2022/01/06 07:41:35;;;;;;;65.82;36.22;;;;;;;8.75;56.86;94285.97;4931344;29;20031;-80
2022/01/06 07:44:00;;;;;;;69.20;35.22;;;;;;;8.87;56.45;94288.50;4931441;29;20097;-79
2022/01/06 07:46:26;;;;;;;70.00;38.40;;;;;;;8.95;56.41;94291.53;4916236;29;20043;-79
2022/01/06 07:48:57;;;;;;;57.58;32.65;;;;;;;8.94;55.76;94297.69;4948268;29;20031;-79
2022/01/06 07:51:24;;;;;;;63.97;36.07;;;;;;;9.06;55.74;94297.66;4897529;29;20034;-79
2022/01/06 07:53:49;;;;;;;69.50;41.30;;;;;;;9.23;55.88;94287.28;4913147;29;20066;-79
2022/01/06 07:56:17;;;;;;;91.40;38.95;;;;;;;9.21;55.62;94294.50;4947731;29;20035;-79
2022/01/06 07:58:43;;;;;;;73.65;41.53;;;;;;;9.44;55.38;94296.97;4929170;29;20035;-78
2022/01/06 08:01:10;;;;;;;93.97;49.42;;;;;;;9.69;55.45;94298.34;4897514;29;20031;-79
2022/01/06 08:03:35;;;;;;;53.70;28.98;;;;;;;9.83;54.06;94295.19;4914987;29;20047;-80
2022/01/06 08:06:00;;;;;;;46.00;27.50;;;;;;;9.91;53.88;94304.34;4932143;29;20114;-80
2022/01/06 08:08:26;;;;;;;64.70;30.15;;;;;;;10.07;54.05;94319.13;4915689;29;20067;-79
2022/01/06 08:10:51;;;;;;;52.90;27.52;;;;;;;10.25;53.09;94315.50;4949002;29;20035;-78
2022/01/06 08:13:17;;;;;;;46.50;28.65;;;;;;;10.43;52.86;94311.81;4945941;29;20525;-79
2022/01/06 08:15:42;;;;;;;52.88;25.73;;;;;;;10.55;51.92;94315.03;4928897;29;20471;-80
2022/01/06 08:18:08;;;;;;;45.35;25.80;;;;;;;10.69;51.95;94311.03;4914021;29;20484;-79
2022/01/06 08:20:36;;;;;;;45.65;25.58;;;;;;;10.83;51.31;94301.81;4945758;29;20730;-80
2022/01/06 08:23:01;;;;;;;44.03;25.58;;;;;;;10.96;50.60;94311.06;4896661;29;20036;-79
2022/01/06 08:25:27;;;;;;;42.55;25.00;;;;;;;11.08;50.31;94297.91;4929522;29;20107;-79
2022/01/06 08:27:53;;;;;;;46.20;26.67;;;;;;;11.18;50.65;94300.56;4913631;29;20036;-81
2022/01/06 08:30:20;;;;;;;48.53;25.15;;;;;;;11.15;50.26;94315.91;4944592;29;20071;-79
2022/01/06 08:32:46;;;;;;;65.03;24.80;;;;;;;11.31;50.06;94296.78;4943684;29;20043;-80
2022/01/06 08:35:11;;;;;;;46.35;24.60;;;;;;;11.34;49.82;94323.09;4916783;29;20051;-79
2022/01/06 08:37:37;;;;;;;47.88;24.40;;;;;;;11.35;50.16;94321.28;4918860;29;20039;-80
2022/01/06 08:40:03;;;;;;;41.75;22.83;;;;;;;11.43;49.59;94308.59;4919119;29;20416;-79
2022/01/06 08:42:28;;;;;;;46.42;24.00;;;;;;;11.51;49.52;94322.19;4914022;29;20579;-79
2022/01/06 08:44:54;;;;;;;47.10;23.00;;;;;;;11.62;49.35;94313.41;4932083;29;20043;-78
2022/01/06 08:47:19;;;;;;;50.38;23.33;;;;;;;11.69;49.25;94303.56;4948858;29;20043;-79
2022/01/06 08:49:45;;;;;;;43.35;22.17;;;;;;;11.77;49.03;94308.31;4929973;29;20047;-78
2022/01/06 08:52:13;;;;;;;48.17;20.75;;;;;;;11.84;48.52;94306.28;4929757;29;20040;-78
2022/01/06 08:54:39;;;;;;;42.42;20.50;;;;;;;11.83;48.61;94319.56;4947370;29;20059;-78
2022/01/06 08:57:04;;;;;;;49.55;20.42;;;;;;;11.88;49.03;94304.78;4933578;29;20035;-80
2022/01/06 08:59:30;;;;;;;36.35;19.38;;;;;;;11.90;48.36;94294.09;4917518;29;20034;-80
2022/01/06 09:01:55;;;;;;;39.33;19.98;;;;;;;12.00;48.52;94299.34;4914560;29;20086;-78
2022/01/06 09:04:21;;;;;;;39.13;20.70;;;;;;;12.04;48.24;94305.66;4948759;29;20039;-79
2022/01/06 09:06:50;;;;;;;36.50;19.15;;;;;;;12.10;48.04;94309.06;4913747;29;20415;-79
2022/01/06 09:09:16;;;;;;;35.65;20.85;;;;;;;12.23;47.75;94298.97;4915013;29;20118;-79
2022/01/06 09:11:42;;;;;;;35.53;20.02;;;;;;;12.35;47.30;94290.91;4938402;29;20040;-79
2022/01/06 09:14:14;;;;;;;34.20;19.63;;;;;;;12.32;47.30;94296.63;4913608;29;20122;-78
2022/01/06 09:16:40;;;;;;;39.15;19.80;;;;;;;12.37;47.38;94307.09;4959598;29;20039;-77
2022/01/06 09:19:05;;;;;;;34.15;19.98;;;;;;;12.37;47.07;94303.72;4930994;29;20039;-78
2022/01/06 09:21:31;;;;;;;46.38;22.10;;;;;;;12.02;47.12;94290.25;4930267;29;20031;-79
2022/01/06 09:24:18;;;;;;;38.80;19.60;;;;;;;11.77;48.08;94282.28;4916508;29;20038;-79
2022/01/06 09:26:43;;;;;;;38.60;20.42;;;;;;;11.77;48.30;94282.28;4928515;29;20048;-79
2022/01/06 09:29:09;;;;;;;33.83;21.00;;;;;;;11.71;48.18;94273.66;4946297;29;20045;-80
2022/01/06 09:31:36;;;;;;;47.10;21.08;;;;;;;11.80;48.39;94286.22;4930351;29;20036;-79
2022/01/06 09:34:04;;;;;;;43.70;22.05;;;;;;;11.85;48.34;94270.59;4912108;29;20574;-82
2022/01/06 09:36:31;;;;;;;48.30;20.63;;;;;;;11.92;47.79;94271.97;4941402;29;20035;-81
2022/01/06 09:38:58;;;;;;;43.13;21.63;;;;;;;11.83;48.46;94262.25;4941280;29;20051;-82
2022/01/06 09:41:53;;;;;;;42.90;21.98;;;;;;;11.88;48.32;94276.13;4908297;29;20110;-79
2022/01/06 09:44:19;;;;;;;48.72;21.60;;;;;;;11.94;48.34;94263.91;4926139;29;20050;-81
2022/01/06 09:46:45;;;;;;;42.38;22.98;;;;;;;12.07;47.99;94262.66;4928072;29;20122;-80
2022/01/06 09:49:14;;;;;;;48.03;22.17;;;;;;;12.20;47.52;94277.81;4929191;29;20114;-82
2022/01/06 09:51:39;;;;;;;49.20;25.25;;;;;;;12.29;47.38;94266.66;4930903;29;20106;-80
2022/01/06 09:54:07;;;;;;;53.13;23.00;;;;;;;12.18;48.04;94262.44;4928810;29;20039;-81
2022/01/06 09:56:32;;;;;;;41.67;22.20;;;;;;;12.23;47.54;94256.47;4945885;29;20031;-80
2022/01/06 09:59:00;;;;;;;55.28;24.95;;;;;;;12.30;47.66;94252.56;4912349;29;20106;-80
2022/01/06 10:01:26;;;;;;;52.35;24.42;;;;;;;12.31;47.31;94256.75;4929751;29;20084;-81
2022/01/06 10:03:54;;;;;;;44.42;24.02;;;;;;;12.25;47.63;94264.81;4926285;29;20035;-82
2022/01/06 10:06:25;;;;;;;44.15;23.98;;;;;;;12.43;47.38;94255.75;4910677;29;20031;-81
2022/01/06 10:08:53;;;;;;;47.45;22.45;;;;;;;12.48;46.88;94258.38;4926279;29;20067;-81
2022/01/06 10:11:41;;;;;;;48.00;24.13;;;;;;;12.54;46.60;94250.31;4927368;29;20031;-81
2022/01/06 10:14:11;;;;;;;48.63;23.77;;;;;;;12.65;46.89;94255.53;4927091;29;20424;-83
2022/01/06 10:16:44;;;;;;;50.20;23.25;;;;;;;12.76;46.52;94250.09;4927144;29;20035;-84
2022/01/06 10:19:49;;;;;;;50.08;23.30;;;;;;;12.92;45.94;94243.06;4913818;29;20404;-83
2022/01/06 10:22:21;;;;;;;43.97;19.40;;;;;;;13.01;45.42;94231.06;4928807;29;20114;-81
2022/01/06 10:24:50;;;;;;;49.55;21.33;;;;;;;13.10;45.07;94234.72;4929841;29;20099;-83
2022/01/06 10:27:20;;;;;;;35.95;19.33;;;;;;;13.24;44.82;94242.06;4930735;29;20058;-81
2022/01/06 10:29:50;;;;;;;38.33;19.20;;;;;;;13.38;44.44;94240.50;4943598;29;20066;-81
2022/01/06 10:32:20;;;;;;;58.08;21.65;;;;;;;13.47;44.78;94241.50;4911516;29;20046;-79
2022/01/06 10:34:50;;;;;;;50.35;24.05;;;;;;;13.51;44.61;94234.75;4910830;29;20122;-84
2022/01/06 10:37:22;;;;;;;43.63;21.77;;;;;;;13.60;44.62;94237.59;4928355;29;20035;-83
2022/01/06 10:39:49;;;;;;;50.35;21.73;;;;;;;13.67;43.91;94244.13;4928741;29;20043;-81
2022/01/06 10:42:15;;;;;;;40.28;20.95;;;;;;;13.76;43.89;94241.72;4928076;29;20511;-84
2022/01/06 10:47:40;;;;;;;33.97;15.88;;;;;;;13.96;42.34;94227.81;4919268;29;20403;-80
2022/01/06 10:50:13;;;;;;;30.75;14.55;;;;;;;14.06;42.14;94219.94;4925869;29;20511;-85
2022/01/06 10:52:42;;;;;;;;;;;;;;;14.20;41.51;94220.94;4942591;29;20031;-84
2022/01/06 10:55:25;;;;;;;26.38;13.13;;;;;;;14.26;40.56;94211.25;4935624;29;19982;-82
2022/01/06 10:58:02;;;;;;;20.00;10.98;;;;;;;14.23;41.09;94204.72;4944258;29;20034;-79
2022/01/06 11:00:29;;;;;;;12.43;5.72;;;;;;;14.38;40.08;94212.50;4910051;29;20036;-90
2022/01/06 11:03:17;;;;;;;10.77;5.03;;;;;;;14.59;38.63;94212.41;4933974;29;20043;-84
2022/01/06 11:05:45;;;;;;;16.25;6.10;;;;;;;14.71;38.93;94207.63;4909273;29;20039;-86
2022/01/06 11:08:12;;;;;;;24.73;6.50;;;;;;;14.77;37.31;94193.44;4909699;29;20073;-84
2022/01/06 11:10:45;;;;;;;14.50;6.03;;;;;;;14.86;38.33;94199.66;4926120;29;20043;-85
2022/01/06 11:13:10;;;;;;;20.65;7.07;;;;;;;14.97;38.99;94193.31;4895684;29;20114;-84
2022/01/06 11:15:36;;;;;;;12.50;6.18;;;;;;;15.06;38.38;94200.56;4942450;29;20023;-85
2022/01/06 11:18:03;;;;;;;7.50;4.65;;;;;;;15.17;39.27;94187.13;4910084;29;20050;-85
2022/01/06 11:20:29;;;;;;;7.78;4.65;;;;;;;15.21;36.91;94185.50;4908119;29;20031;-84
2022/01/06 11:22:58;;;;;;;18.05;4.90;;;;;;;15.31;36.74;94188.03;4926176;29;20514;-85
2022/01/06 11:25:36;;;;;;;34.10;6.90;;;;;;;15.39;36.50;94184.03;4925357;29;20492;-85
2022/01/06 11:28:15;;;;;;;18.55;5.28;;;;;;;15.45;36.48;94190.78;4924908;29;20036;-83
2022/01/06 11:30:45;;;;;;;21.95;4.07;;;;;;;15.49;36.63;94185.78;4909704;29;20114;-87